createdAt,value
2019-03-23T00:01:24.642Z,64.90
2019-03-23T00:03:53.159Z,64.90
2019-03-23T00:06:30.450Z,64.80
2019-03-23T00:08:51.758Z,64.90
2019-03-23T00:11:20.275Z,64.30
2019-03-23T00:13:49.166Z,64.80
2019-03-23T00:16:17.615Z,64.60
2019-03-23T00:18:46.065Z,64.80
2019-03-23T00:21:14.606Z,64.50
2019-03-23T00:23:43.131Z,64.50
2019-03-23T00:26:13.348Z,64.40
2019-03-23T00:28:41.978Z,65.00
2019-03-23T00:31:10.447Z,65.00
2019-03-23T00:33:38.927Z,65.20
2019-03-23T00:36:07.358Z,65.00
2019-03-23T00:38:35.807Z,65.20
2019-03-23T00:41:04.250Z,65.00
2019-03-23T00:43:32.685Z,64.90
2019-03-23T00:46:01.118Z,65.30
2019-03-23T00:48:29.574Z,65.10
2019-03-23T00:50:58.086Z,65.10
2019-03-23T00:53:26.535Z,65.30
2019-03-23T00:55:54.963Z,65.20
2019-03-23T00:58:23.413Z,65.20
2019-03-23T01:00:51.859Z,64.80
2019-03-23T01:03:20.271Z,65.50
2019-03-23T01:05:48.787Z,66.10
2019-03-23T01:08:17.770Z,66.50
2019-03-23T01:10:46.255Z,67.00
2019-03-23T01:13:14.706Z,66.50
2019-03-23T01:15:43.140Z,66.50
2019-03-23T01:18:11.619Z,65.90
2019-03-23T01:20:49.392Z,65.50
2019-03-23T01:23:10.278Z,65.80
2019-03-23T01:25:38.729Z,66.40
2019-03-23T01:28:07.178Z,66.60
2019-03-23T01:30:35.670Z,66.50
2019-03-23T01:33:04.105Z,66.00
2019-03-23T01:35:32.553Z,65.80
2019-03-23T01:38:00.982Z,66.00
2019-03-23T01:40:29.426Z,65.90
2019-03-23T01:42:57.938Z,66.00
2019-03-23T01:45:26.406Z,66.60
2019-03-23T01:47:54.898Z,66.60
2019-03-23T01:50:23.342Z,66.10
2019-03-23T01:52:51.762Z,66.70
2019-03-23T01:55:20.203Z,67.50
2019-03-23T01:57:48.622Z,67.80
2019-03-23T02:00:17.315Z,68.20
2019-03-23T02:02:47.527Z,67.70
2019-03-23T02:05:16.315Z,67.50
2019-03-23T02:07:44.750Z,67.60
2019-03-23T02:10:13.356Z,67.80
2019-03-23T02:12:41.804Z,67.90
2019-03-23T02:15:12.290Z,67.50
2019-03-23T02:17:40.806Z,67.20
2019-03-23T02:20:11.266Z,67.40
2019-03-23T02:22:39.783Z,67.70
2019-03-23T02:25:08.748Z,68.10
2019-03-23T02:27:37.274Z,68.00
2019-03-23T02:30:13.463Z,67.80
2019-03-23T02:32:41.988Z,67.70
2019-03-23T02:35:11.848Z,68.00
2019-03-23T02:37:40.387Z,67.90
2019-03-23T02:40:12.206Z,68.30
2019-03-23T02:42:40.648Z,68.70
2019-03-23T02:45:12.968Z,68.30
2019-03-23T02:47:41.401Z,68.00
2019-03-23T02:50:11.072Z,67.70
2019-03-23T02:52:39.523Z,67.80
2019-03-23T02:55:09.593Z,68.20
2019-03-23T02:57:38.151Z,68.30
2019-03-23T03:00:12.516Z,68.90
2019-03-23T03:02:40.964Z,69.20
2019-03-23T03:05:10.424Z,69.10
2019-03-23T03:07:42.456Z,68.60
2019-03-23T03:10:14.049Z,68.70
2019-03-23T03:12:42.562Z,69.00
2019-03-23T03:15:11.425Z,69.10
2019-03-23T03:17:39.936Z,68.80
2019-03-23T03:20:09.828Z,69.00
2019-03-23T03:22:38.273Z,68.50
2019-03-23T03:25:08.129Z,68.30
2019-03-23T03:27:36.569Z,68.50
2019-03-23T03:30:08.240Z,68.80
2019-03-23T03:32:37.762Z,69.00
2019-03-23T03:35:06.706Z,69.50
2019-03-23T03:37:35.312Z,69.50
2019-03-23T03:40:05.803Z,69.30
2019-03-23T03:42:34.242Z,68.50
2019-03-23T03:45:02.794Z,68.50
2019-03-23T03:47:31.238Z,69.20
2019-03-23T03:49:59.685Z,69.80
2019-03-23T03:52:28.250Z,69.20
2019-03-23T03:54:56.746Z,68.60
2019-03-23T03:57:25.197Z,68.40
2019-03-23T03:59:53.692Z,68.60
2019-03-23T04:02:22.114Z,69.10
2019-03-23T04:04:50.678Z,69.50
2019-03-23T04:07:19.109Z,69.50
2019-03-23T04:09:47.555Z,69.60
2019-03-23T04:12:16.005Z,69.60
2019-03-23T04:14:44.463Z,69.60
2019-03-23T04:17:12.958Z,69.80
2019-03-23T04:19:41.387Z,70.00
2019-03-23T04:22:09.887Z,70.30
2019-03-23T04:24:38.369Z,70.30
2019-03-23T04:27:06.813Z,70.30
2019-03-23T04:29:35.242Z,69.90
2019-03-23T04:32:03.750Z,69.40
2019-03-23T04:34:32.180Z,69.30
2019-03-23T04:37:00.686Z,69.70
2019-03-23T04:39:29.111Z,70.40
2019-03-23T04:41:57.566Z,70.60
2019-03-23T04:44:26.059Z,69.90
2019-03-23T04:46:54.567Z,69.40
2019-03-23T04:49:23.015Z,69.30
2019-03-23T04:51:51.458Z,69.30
2019-03-23T04:54:19.879Z,69.90
2019-03-23T04:56:48.339Z,70.40
2019-03-23T04:59:16.757Z,70.00
2019-03-23T05:01:45.213Z,69.10
2019-03-23T05:04:13.650Z,69.80
2019-03-23T05:06:42.642Z,70.20
2019-03-23T05:09:11.204Z,70.70
2019-03-23T05:11:39.650Z,70.80
2019-03-23T05:14:08.087Z,71.00
2019-03-23T05:16:36.822Z,71.00
2019-03-23T05:19:05.261Z,71.40
2019-03-23T05:21:33.720Z,71.50
2019-03-23T05:24:02.183Z,71.60
2019-03-23T05:26:30.690Z,71.70
2019-03-23T05:28:59.107Z,71.90
2019-03-23T05:31:27.539Z,71.60
2019-03-23T05:33:55.987Z,70.70
2019-03-23T05:36:24.417Z,70.60
2019-03-23T05:38:52.859Z,70.20
2019-03-23T05:41:21.281Z,70.50
2019-03-23T05:43:49.722Z,71.40
2019-03-23T05:46:18.223Z,71.40
2019-03-23T05:48:46.679Z,71.50
2019-03-23T05:51:15.094Z,71.70
2019-03-23T05:53:43.547Z,72.00
2019-03-23T05:56:12.011Z,72.30
2019-03-23T05:58:40.465Z,73.20
2019-03-23T06:01:08.909Z,73.10
2019-03-23T06:03:37.341Z,73.10
2019-03-23T06:06:06.852Z,73.80
2019-03-23T06:08:35.307Z,74.10
2019-03-23T06:11:03.779Z,73.80
2019-03-23T06:13:32.244Z,73.50
2019-03-23T06:16:00.681Z,74.00
2019-03-23T06:18:29.190Z,74.30
2019-03-23T06:20:58.633Z,75.00
2019-03-23T06:23:27.078Z,76.00
2019-03-23T06:25:55.598Z,77.20
2019-03-23T06:28:24.034Z,77.50
2019-03-23T06:30:52.510Z,77.30
2019-03-23T06:33:20.940Z,76.90
2019-03-23T06:35:49.385Z,76.60
2019-03-23T06:38:17.807Z,77.80
2019-03-23T06:40:46.270Z,78.20
2019-03-23T06:43:14.675Z,78.10
2019-03-23T06:45:43.133Z,77.90
2019-03-23T06:48:11.563Z,77.40
2019-03-23T06:50:41.537Z,77.10
2019-03-23T06:53:09.970Z,76.50
2019-03-23T06:55:38.416Z,76.10
2019-03-23T06:58:06.856Z,75.90
2019-03-23T07:00:35.302Z,75.70
2019-03-23T07:03:03.740Z,74.50
2019-03-23T07:05:32.254Z,74.00
2019-03-23T07:08:00.686Z,72.20
2019-03-23T07:10:29.165Z,69.30
2019-03-23T07:12:57.622Z,68.30
2019-03-23T07:15:26.044Z,67.60
2019-03-23T07:17:54.491Z,66.80
2019-03-23T07:20:22.908Z,65.50
2019-03-23T07:22:51.345Z,64.70
2019-03-23T07:25:19.854Z,63.70
2019-03-23T07:27:48.306Z,62.90
2019-03-23T07:30:17.775Z,62.60
2019-03-23T07:32:46.395Z,61.80
2019-03-23T07:35:15.069Z,61.20
2019-03-23T07:37:43.586Z,61.30
2019-03-23T07:40:12.854Z,61.00
2019-03-23T07:42:41.417Z,60.80
2019-03-23T07:45:11.797Z,60.80
2019-03-23T07:47:40.231Z,60.60
2019-03-23T07:50:11.097Z,60.50
2019-03-23T07:52:39.702Z,60.40
2019-03-23T07:55:12.855Z,60.50
2019-03-23T07:57:41.641Z,60.70
2019-03-23T08:00:18.659Z,26.30
2019-03-23T08:02:47.338Z,26.30
2019-03-23T08:05:15.834Z,26.50
2019-03-23T08:07:44.420Z,26.00
2019-03-23T08:10:16.007Z,26.50
2019-03-23T08:12:44.462Z,27.10
2019-03-23T08:15:13.127Z,26.70
2019-03-23T08:17:41.573Z,27.30
2019-03-23T08:20:10.066Z,26.30
2019-03-23T08:22:38.503Z,26.50
2019-03-23T08:25:07.186Z,26.90
2019-03-23T08:27:35.634Z,26.80
2019-03-23T08:30:06.010Z,26.70
2019-03-23T08:32:34.458Z,26.50
2019-03-23T08:35:02.984Z,26.50
2019-03-23T08:37:31.442Z,24.70
2019-03-23T08:39:59.998Z,24.90
2019-03-23T08:42:28.457Z,25.30
2019-03-23T08:44:56.967Z,25.10
2019-03-23T08:47:25.421Z,25.00
2019-03-23T08:49:53.889Z,25.40
2019-03-23T08:52:22.314Z,25.10
2019-03-23T08:54:50.798Z,25.00
2019-03-23T08:57:19.262Z,26.10
2019-03-23T08:59:47.713Z,25.00
2019-03-23T09:02:16.144Z,25.00
2019-03-23T09:04:44.601Z,25.80
2019-03-23T09:07:13.031Z,25.50
2019-03-23T09:09:41.489Z,24.60
2019-03-23T09:12:09.916Z,25.40
2019-03-23T09:14:38.341Z,24.00
2019-03-23T09:17:06.852Z,24.00
2019-03-23T09:19:35.359Z,23.10
2019-03-23T09:22:04.565Z,23.50
2019-03-23T09:24:33.018Z,24.70
2019-03-23T09:27:01.462Z,24.30
2019-03-23T09:29:29.901Z,25.00
2019-03-23T09:31:58.375Z,25.30
2019-03-23T09:34:26.821Z,24.60
2019-03-23T09:36:55.359Z,27.00
2019-03-23T09:39:23.884Z,24.70
2019-03-23T09:41:52.393Z,24.00
2019-03-23T09:44:20.890Z,23.70
2019-03-23T09:46:49.336Z,24.00
2019-03-23T09:49:17.782Z,23.80
2019-03-23T09:51:46.243Z,23.70
2019-03-23T09:54:14.675Z,24.10
2019-03-23T09:56:43.623Z,24.00
2019-03-23T09:59:12.046Z,21.70
2019-03-23T10:01:40.501Z,23.60
2019-03-23T10:04:08.941Z,24.10
2019-03-23T10:06:37.383Z,23.80
2019-03-23T10:09:06.968Z,24.50
2019-03-23T10:11:35.494Z,25.80
2019-03-23T10:14:04.080Z,25.60
2019-03-23T10:16:32.490Z,24.40
2019-03-23T10:19:00.932Z,23.30
2019-03-23T10:21:29.358Z,23.60
2019-03-23T10:23:57.807Z,23.20
2019-03-23T10:26:26.248Z,22.40
2019-03-23T10:28:54.694Z,22.60
2019-03-23T10:31:23.112Z,23.40
2019-03-23T10:33:51.561Z,24.60
2019-03-23T10:36:20.042Z,23.60
2019-03-23T10:38:48.522Z,23.20
2019-03-23T10:41:16.965Z,23.60
2019-03-23T10:43:45.651Z,23.10
2019-03-23T10:46:14.247Z,23.20
2019-03-23T10:48:42.692Z,23.70
2019-03-23T10:51:11.167Z,24.30
2019-03-23T10:53:39.671Z,22.70
2019-03-23T10:56:08.149Z,23.10
2019-03-23T10:58:36.591Z,22.40
2019-03-23T11:01:05.195Z,22.10
2019-03-23T11:03:33.618Z,22.80
2019-03-23T11:06:02.161Z,23.10
2019-03-23T11:08:30.591Z,23.10
2019-03-23T11:10:59.047Z,23.90
2019-03-23T11:13:27.462Z,24.00
2019-03-23T11:15:55.918Z,22.50
2019-03-23T11:18:24.350Z,22.30
2019-03-23T11:20:52.795Z,22.90
2019-03-23T11:23:21.237Z,23.20
2019-03-23T11:25:49.679Z,22.00
2019-03-23T11:28:18.116Z,22.60
2019-03-23T11:30:46.558Z,23.10
2019-03-23T11:33:14.990Z,22.20
2019-03-23T11:35:43.494Z,21.40
2019-03-23T11:38:11.926Z,21.50
2019-03-23T11:40:40.354Z,21.60
2019-03-23T11:43:08.811Z,21.50
2019-03-23T11:45:37.268Z,22.80
2019-03-23T11:48:05.686Z,22.30
2019-03-23T11:50:34.148Z,22.20
2019-03-23T11:53:02.578Z,21.90
2019-03-23T11:55:31.038Z,22.50
2019-03-23T11:57:59.482Z,22.00
2019-03-23T12:00:28.163Z,21.50
2019-03-23T12:02:56.607Z,22.30
2019-03-23T12:05:25.048Z,22.50
2019-03-23T12:07:53.476Z,21.80
2019-03-23T12:10:21.907Z,22.40
2019-03-23T12:12:50.377Z,22.00
2019-03-23T12:15:18.841Z,22.20
2019-03-23T12:17:47.303Z,22.70
2019-03-23T12:20:15.819Z,22.30
2019-03-23T12:22:44.279Z,21.90
2019-03-23T12:25:12.702Z,22.60
2019-03-23T12:27:41.240Z,22.60
2019-03-23T12:30:13.046Z,22.30
2019-03-23T12:32:41.494Z,22.20
2019-03-23T12:35:10.174Z,22.30
2019-03-23T12:37:38.713Z,22.90
2019-03-23T12:40:08.494Z,23.00
2019-03-23T12:42:37.067Z,22.40
2019-03-23T12:45:06.656Z,22.30
2019-03-23T12:47:35.163Z,22.40
2019-03-23T12:50:05.655Z,21.70
2019-03-23T12:52:34.142Z,22.70
2019-03-23T12:55:02.595Z,22.20
2019-03-23T12:57:31.042Z,21.50
2019-03-23T12:59:59.490Z,21.70
2019-03-23T13:02:27.936Z,22.00
2019-03-23T13:04:56.397Z,21.50
2019-03-23T13:07:24.891Z,23.20
2019-03-23T13:09:53.353Z,23.40
2019-03-23T13:12:21.798Z,23.40
2019-03-23T13:14:50.270Z,22.90
2019-03-23T13:17:18.687Z,22.60
2019-03-23T13:19:47.164Z,22.70
2019-03-23T13:22:15.662Z,22.60
2019-03-23T13:24:44.131Z,23.30
2019-03-23T13:27:12.635Z,23.20
2019-03-23T13:29:41.090Z,22.70
2019-03-23T13:32:09.510Z,22.80
2019-03-23T13:34:37.972Z,22.60
2019-03-23T13:37:06.411Z,22.90
2019-03-23T13:39:34.873Z,22.80
2019-03-23T13:42:03.312Z,23.60
2019-03-23T13:44:31.738Z,22.70
2019-03-23T13:47:00.208Z,22.10
2019-03-23T13:49:28.657Z,22.80
2019-03-23T13:51:57.098Z,21.80
2019-03-23T13:54:25.694Z,21.90
2019-03-23T13:56:54.143Z,22.80
2019-03-23T13:59:24.251Z,23.10
2019-03-23T14:01:52.719Z,22.80
2019-03-23T14:04:22.692Z,23.40
2019-03-23T14:06:51.143Z,22.40
2019-03-23T14:09:19.576Z,22.50
2019-03-23T14:11:54.905Z,22.70
2019-03-23T14:14:18.187Z,22.40
2019-03-23T14:16:46.647Z,23.50
2019-03-23T14:19:15.066Z,23.40
2019-03-23T14:21:43.522Z,22.30
2019-03-23T14:24:11.950Z,21.90
2019-03-23T14:26:40.422Z,21.20
2019-03-23T14:29:08.835Z,21.50
2019-03-23T14:31:37.298Z,21.00
2019-03-23T14:34:05.761Z,20.80
2019-03-23T14:36:34.277Z,21.10
2019-03-23T14:39:04.570Z,20.80
2019-03-23T14:41:33.016Z,20.70
2019-03-23T14:44:01.467Z,20.40
2019-03-23T14:46:30.015Z,20.50
2019-03-23T14:49:01.575Z,20.60
2019-03-23T14:51:28.620Z,20.50
2019-03-23T14:53:57.148Z,20.10
2019-03-23T14:56:25.574Z,20.10
2019-03-23T14:58:54.202Z,19.60
2019-03-23T15:01:22.631Z,19.20
2019-03-23T15:03:51.102Z,19.60
2019-03-23T15:06:19.540Z,19.80
2019-03-23T15:08:48.093Z,19.60
2019-03-23T15:11:16.515Z,19.50
2019-03-23T15:13:44.958Z,19.30
2019-03-23T15:16:13.478Z,19.30
2019-03-23T15:18:41.930Z,19.20
2019-03-23T15:21:10.438Z,19.00
2019-03-23T15:23:38.858Z,18.90
2019-03-23T15:26:07.371Z,19.10
2019-03-23T15:28:35.807Z,18.80
2019-03-23T15:31:04.337Z,18.80
2019-03-23T15:33:32.754Z,18.80
2019-03-23T15:36:01.221Z,18.60
2019-03-23T15:38:30.439Z,18.60
2019-03-23T15:40:58.895Z,18.20
2019-03-23T15:43:27.319Z,18.30
2019-03-23T15:45:55.768Z,18.20
2019-03-23T15:48:24.220Z,17.80
2019-03-23T15:50:52.678Z,17.80
2019-03-23T15:53:21.138Z,17.60
2019-03-23T15:55:49.642Z,17.50
2019-03-23T15:58:18.066Z,17.40
2019-03-23T16:00:46.561Z,17.60
2019-03-23T16:03:14.992Z,17.60
2019-03-23T16:05:43.447Z,17.80
2019-03-23T16:08:11.894Z,17.70
2019-03-23T16:10:40.352Z,17.70
2019-03-23T16:13:08.781Z,17.40
2019-03-23T16:15:37.230Z,17.50
2019-03-23T16:18:05.657Z,17.60
2019-03-23T16:20:34.102Z,17.70
2019-03-23T16:23:02.564Z,17.80
2019-03-23T16:25:30.997Z,17.80
2019-03-23T16:27:59.438Z,17.60
2019-03-23T16:30:31.927Z,17.80
2019-03-23T16:33:00.378Z,17.70
2019-03-23T16:35:28.797Z,17.70
2019-03-23T16:37:57.249Z,17.60
2019-03-23T16:40:25.712Z,17.80
2019-03-23T16:42:54.158Z,17.70
2019-03-23T16:45:22.585Z,17.80
2019-03-23T16:47:51.070Z,17.60
2019-03-23T16:50:19.495Z,17.60
2019-03-23T16:52:47.955Z,17.70
2019-03-23T16:55:16.382Z,17.70
2019-03-23T16:57:44.903Z,17.70
2019-03-23T17:00:15.079Z,17.80
2019-03-23T17:02:45.151Z,18.10
2019-03-23T17:05:14.117Z,18.20
2019-03-23T17:07:42.589Z,18.60
2019-03-23T17:10:11.365Z,18.90
2019-03-23T17:12:39.984Z,19.30
2019-03-23T17:15:08.780Z,19.50
2019-03-23T17:17:37.302Z,19.60
2019-03-23T17:20:07.545Z,19.50
2019-03-23T17:22:36.002Z,19.80
2019-03-23T17:25:06.591Z,19.50
2019-03-23T17:27:35.037Z,19.60
2019-03-23T17:30:04.822Z,19.60
2019-03-23T17:32:33.263Z,19.70
2019-03-23T17:35:01.712Z,19.80
2019-03-23T17:37:30.133Z,19.90
2019-03-23T17:39:58.597Z,20.00
2019-03-23T17:42:27.022Z,20.30
2019-03-23T17:44:55.476Z,20.10
2019-03-23T17:47:25.468Z,20.00
2019-03-23T17:49:53.926Z,19.90
2019-03-23T17:52:22.414Z,19.90
2019-03-23T17:54:50.866Z,20.00
2019-03-23T17:57:19.294Z,20.00
2019-03-23T17:59:47.749Z,20.00
2019-03-23T18:02:16.254Z,20.10
2019-03-23T18:04:44.722Z,20.20
2019-03-23T18:07:13.193Z,20.00
2019-03-23T18:09:41.731Z,20.00
2019-03-23T18:12:10.174Z,20.00
2019-03-23T18:14:38.684Z,21.70
2019-03-23T18:17:07.238Z,21.80
2019-03-23T18:19:35.775Z,21.70
2019-03-23T18:22:04.356Z,21.70
2019-03-23T18:24:32.792Z,21.70
2019-03-23T18:27:01.231Z,21.60
2019-03-23T18:29:29.654Z,21.50
2019-03-23T18:31:58.219Z,22.20
2019-03-23T18:34:26.642Z,22.60
2019-03-23T18:36:56.038Z,22.60
2019-03-23T18:39:24.487Z,22.50
2019-03-23T18:41:52.928Z,22.60
2019-03-23T18:44:21.411Z,22.60
2019-03-23T18:46:49.874Z,22.70
2019-03-23T18:49:18.318Z,22.90
2019-03-23T18:51:46.830Z,22.90
2019-03-23T18:54:15.276Z,23.10
2019-03-23T18:56:43.737Z,23.40
2019-03-23T18:59:12.163Z,23.50
2019-03-23T19:01:40.623Z,23.50
2019-03-23T19:04:09.058Z,23.50
2019-03-23T19:06:37.594Z,23.60
2019-03-23T19:09:07.478Z,23.60
2019-03-23T19:11:36.092Z,24.00
2019-03-23T19:14:04.692Z,24.20
2019-03-23T19:16:33.120Z,24.00
2019-03-23T19:19:01.590Z,24.10
2019-03-23T19:21:30.005Z,24.20
2019-03-23T19:23:58.539Z,24.20
2019-03-23T19:26:27.294Z,24.20
2019-03-23T19:28:55.818Z,24.20
2019-03-23T19:31:24.275Z,24.60
2019-03-23T19:33:52.796Z,24.20
2019-03-23T19:36:21.247Z,24.90
2019-03-23T19:38:49.692Z,24.90
2019-03-23T19:41:18.127Z,24.70
2019-03-23T19:43:49.710Z,60.20
2019-03-23T19:46:16.735Z,60.30
2019-03-23T19:48:45.188Z,60.30
2019-03-23T19:51:13.640Z,60.20
2019-03-23T19:53:42.122Z,60.20
2019-03-23T19:56:10.552Z,60.30
2019-03-23T19:58:38.978Z,60.50
2019-03-23T20:01:07.430Z,60.40
2019-03-23T20:03:35.868Z,60.30
2019-03-23T20:06:04.388Z,60.40
2019-03-23T20:08:32.838Z,60.40
2019-03-23T20:11:01.273Z,60.50
2019-03-23T20:13:29.715Z,60.60
2019-03-23T20:15:58.142Z,60.50
2019-03-23T20:18:26.639Z,60.70
2019-03-23T20:20:55.092Z,60.90
2019-03-23T20:23:23.527Z,60.70
2019-03-23T20:25:51.987Z,60.70
2019-03-23T20:28:20.432Z,60.50
2019-03-23T20:30:48.868Z,60.60
2019-03-23T20:33:19.709Z,60.50
2019-03-23T20:35:47.536Z,60.40
2019-03-23T20:38:15.951Z,60.40
2019-03-23T20:40:44.422Z,60.40
2019-03-23T20:43:12.849Z,60.50
2019-03-23T20:45:41.381Z,60.50
2019-03-23T20:48:11.422Z,60.50
2019-03-23T20:50:40.034Z,60.40
2019-03-23T20:53:08.736Z,60.50
2019-03-23T20:55:37.202Z,60.60
2019-03-23T20:58:05.625Z,60.80
2019-03-23T21:00:34.077Z,60.90
2019-03-23T21:03:02.623Z,61.00
2019-03-23T21:05:34.218Z,61.00
2019-03-23T21:08:01.223Z,61.10
2019-03-23T21:10:29.648Z,60.70
2019-03-23T21:12:58.114Z,60.90
2019-03-23T21:15:26.526Z,60.80
2019-03-23T21:17:54.983Z,60.90
2019-03-23T21:20:23.497Z,61.10
2019-03-23T21:22:51.998Z,61.00
2019-03-23T21:25:20.524Z,61.10
2019-03-23T21:27:49.063Z,61.00
2019-03-23T21:30:19.129Z,61.10
2019-03-23T21:32:47.568Z,61.10
2019-03-23T21:35:16.127Z,61.20
2019-03-23T21:37:44.722Z,61.00
2019-03-23T21:40:13.338Z,61.00
2019-03-23T21:42:41.795Z,61.10
2019-03-23T21:45:11.059Z,61.10
2019-03-23T21:47:39.578Z,61.30
2019-03-23T21:50:08.390Z,61.40
2019-03-23T21:52:36.919Z,61.30
2019-03-23T21:55:07.088Z,61.30
2019-03-23T21:57:36.082Z,61.50
2019-03-23T22:00:06.852Z,61.60
2019-03-23T22:02:35.299Z,61.70
2019-03-23T22:05:05.066Z,61.60
2019-03-23T22:07:33.524Z,61.70
2019-03-23T22:10:01.961Z,61.60
2019-03-23T22:12:30.485Z,61.50
2019-03-23T22:14:58.968Z,61.70
2019-03-23T22:17:27.379Z,61.60
2019-03-23T22:19:55.824Z,61.90
2019-03-23T22:22:24.268Z,62.00
2019-03-23T22:24:52.715Z,61.70
2019-03-23T22:27:21.167Z,61.90
2019-03-23T22:29:49.615Z,61.90
2019-03-23T22:32:18.048Z,61.80
2019-03-23T22:34:46.553Z,62.10
2019-03-23T22:37:15.052Z,61.90
2019-03-23T22:39:43.510Z,62.10
2019-03-23T22:42:11.934Z,62.40
2019-03-23T22:44:40.383Z,62.40
2019-03-23T22:47:08.906Z,62.50
2019-03-23T22:49:37.379Z,62.30
2019-03-23T22:52:05.831Z,62.40
2019-03-23T22:54:34.249Z,62.60
2019-03-23T22:57:02.702Z,62.80
2019-03-23T22:59:31.239Z,62.70
2019-03-23T23:01:59.839Z,63.40
2019-03-23T23:04:28.327Z,63.30
2019-03-23T23:06:56.744Z,63.70
2019-03-23T23:09:25.198Z,63.30
2019-03-23T23:11:53.631Z,63.40
2019-03-23T23:14:22.073Z,63.40
2019-03-23T23:16:50.518Z,63.50
2019-03-23T23:19:18.940Z,63.50
2019-03-23T23:21:47.398Z,63.50
2019-03-23T23:24:15.883Z,63.60
2019-03-23T23:26:44.343Z,63.60
2019-03-23T23:29:12.779Z,63.40
2019-03-23T23:31:41.291Z,63.30
2019-03-23T23:34:09.724Z,63.40
2019-03-23T23:36:38.176Z,63.70
2019-03-23T23:39:07.343Z,63.90
2019-03-23T23:41:35.794Z,63.90
2019-03-23T23:44:04.666Z,64.00
2019-03-23T23:46:33.110Z,64.20
2019-03-23T23:49:01.538Z,64.20
2019-03-23T23:51:29.988Z,64.60
2019-03-23T23:53:58.399Z,64.40
2019-03-23T23:56:26.855Z,64.30
2019-03-23T23:58:55.266Z,64.10
